Terminal Aerodrome Forecast
Issued by NWS

Home | Current Version | Previous Version | Text Only | Print | Product List | Glossary On
Versions: 1 2 3 4 5 6 7 8 9 10 11 12
000
FTUS43 KSGF 111128
TAFBBG
TAF
KBBG 111128Z 1112/1212 16008KT P6SM OVC040
     FM111600 17008KT P6SM OVC015
     FM111800 18008KT P6SM VCSH OVC008
     FM120100 25005KT P6SM VCSH OVC010
     FM120300 31006KT P6SM VCSH OVC010
     FM120400 31006KT P6SM VCSH OVC008
     FM120600 33007KT P6SM BKN010
     FM121100 32005KT P6SM SCT015=

USA.gov is the U.S. government's official web portal to all federal, state and local government web resources and services.